createdAt,value
2022-12-18T00:17:37.542Z,237
2022-12-18T00:37:37.330Z,242
2022-12-18T01:17:37.541Z,238
2022-12-18T01:37:37.054Z,235
2022-12-18T01:57:37.540Z,236
2022-12-18T02:17:37.573Z,234
2022-12-18T02:57:37.599Z,230
2022-12-18T03:17:37.571Z,222
2022-12-18T03:37:37.606Z,231
2022-12-18T03:57:37.405Z,224
2022-12-18T04:17:37.389Z,234
2022-12-18T04:37:37.429Z,227
2022-12-18T04:57:44.606Z,231
2022-12-18T05:17:37.603Z,227
2022-12-18T05:37:42.646Z,229
2022-12-18T05:57:37.635Z,239
2022-12-18T06:17:37.612Z,231
2022-12-18T06:37:37.232Z,217
2022-12-18T07:17:37.652Z,237
2022-12-18T07:37:37.142Z,238
2022-12-18T07:57:50.884Z,235
2022-12-18T08:17:37.666Z,247
2022-12-18T08:37:37.668Z,241
2022-12-18T08:57:37.656Z,240
2022-12-18T09:17:37.663Z,246
2022-12-18T09:57:37.676Z,249
2022-12-18T10:17:37.658Z,248
2022-12-18T10:37:37.720Z,250
2022-12-18T10:57:37.660Z,248
2022-12-18T11:17:44.647Z,238
2022-12-18T11:37:37.134Z,256
2022-12-18T11:57:37.442Z,246
2022-12-18T12:17:37.623Z,256
2022-12-18T12:37:37.420Z,248
2022-12-18T12:57:44.614Z,248
2022-12-18T13:17:37.600Z,252
2022-12-18T14:57:37.566Z,252
2022-12-18T15:37:37.557Z,255
2022-12-18T15:57:37.538Z,249
2022-12-18T16:17:37.530Z,253
2022-12-18T16:37:44.025Z,250
2022-12-18T16:57:51.529Z,254
2022-12-18T17:37:37.513Z,252
2022-12-18T17:57:37.508Z,246
2022-12-18T18:17:37.490Z,248
2022-12-18T18:37:36.987Z,246
2022-12-18T18:57:37.481Z,234
2022-12-18T19:17:37.481Z,250
2022-12-18T19:37:37.479Z,245
2022-12-18T19:57:44.463Z,248
2022-12-18T20:17:36.958Z,251
2022-12-18T20:37:39.279Z,245
2022-12-18T20:57:44.473Z,250
2022-12-18T21:17:40.138Z,254
2022-12-18T21:37:36.931Z,247
2022-12-18T21:57:37.451Z,243
2022-12-18T22:17:44.422Z,249
2022-12-18T22:37:37.418Z,249
2022-12-18T22:57:37.508Z,243
2022-12-18T23:17:37.415Z,243
2022-12-18T23:37:57.850Z,245
2022-12-18T23:57:37.385Z,247
